createdAt,value
2022-10-26T00:02:23.591Z,7.27
2022-10-26T00:05:15.099Z,7.00
2022-10-26T00:08:08.805Z,6.13
2022-10-26T00:10:59.084Z,6.90
2022-10-26T00:13:51.411Z,7.63
2022-10-26T00:19:55.792Z,7.37
2022-10-26T00:22:52.311Z,6.40
2022-10-26T00:25:42.136Z,6.97
2022-10-26T00:28:32.208Z,6.23
2022-10-26T00:31:22.642Z,7.13
2022-10-26T00:34:17.722Z,7.20
2022-10-26T00:37:07.526Z,7.57
2022-10-26T00:40:05.274Z,7.40
2022-10-26T00:42:55.076Z,8.23
2022-10-26T00:45:47.830Z,8.20
2022-10-26T00:48:42.505Z,7.63
2022-10-26T00:51:35.366Z,8.60
2022-10-26T00:54:26.197Z,8.30
2022-10-26T00:57:19.737Z,7.60
2022-10-26T01:00:11.792Z,7.73
2022-10-26T01:03:02.944Z,7.40
2022-10-26T01:05:51.453Z,8.43
2022-10-26T01:08:43.475Z,8.30
2022-10-26T01:11:32.088Z,7.70
2022-10-26T01:14:21.155Z,7.80
2022-10-26T01:17:21.927Z,7.60
2022-10-26T01:20:22.877Z,8.10
2022-10-26T01:23:19.248Z,8.13
2022-10-26T01:26:21.929Z,8.33
2022-10-26T01:29:23.424Z,8.17
2022-10-26T01:32:23.776Z,8.57
2022-10-26T01:35:15.202Z,9.03
2022-10-26T01:38:14.733Z,8.00
2022-10-26T01:41:06.084Z,8.30
2022-10-26T01:44:00.382Z,7.83
2022-10-26T01:46:50.677Z,8.73
2022-10-26T01:49:43.658Z,8.87
2022-10-26T01:52:36.299Z,8.57
2022-10-26T01:55:47.889Z,8.50
2022-10-26T01:58:47.995Z,7.10
2022-10-26T02:01:50.166Z,8.00
2022-10-26T02:04:45.058Z,7.60
2022-10-26T02:07:42.052Z,7.63
2022-10-26T02:10:35.138Z,8.10
2022-10-26T02:13:27.295Z,8.43
2022-10-26T02:16:25.173Z,8.37
2022-10-26T02:19:29.009Z,7.60
2022-10-26T02:22:27.425Z,7.93
2022-10-26T02:25:17.833Z,8.63
2022-10-26T02:28:22.429Z,8.00
2022-10-26T02:31:11.769Z,6.90
2022-10-26T02:34:04.204Z,7.60
2022-10-26T02:36:54.966Z,8.43
2022-10-26T02:39:45.193Z,7.80
2022-10-26T02:42:34.286Z,7.90
2022-10-26T02:45:26.367Z,8.33
2022-10-26T02:48:19.164Z,7.20
2022-10-26T02:51:11.581Z,9.00
2022-10-26T02:54:04.494Z,8.10
2022-10-26T02:56:57.816Z,7.90
2022-10-26T02:59:52.534Z,7.93
2022-10-26T03:02:42.437Z,8.00
2022-10-26T03:05:34.105Z,8.47
2022-10-26T03:11:25.032Z,8.53
2022-10-26T03:14:29.197Z,9.10
2022-10-26T03:17:17.662Z,8.07
2022-10-26T03:20:08.224Z,9.10
2022-10-26T03:22:59.452Z,8.13
2022-10-26T03:25:49.198Z,8.27
2022-10-26T03:28:39.599Z,8.87
2022-10-26T03:31:32.459Z,8.70
2022-10-26T03:34:25.126Z,9.10
2022-10-26T03:37:13.659Z,8.60
2022-10-26T03:40:04.054Z,8.47
2022-10-26T03:42:52.812Z,8.63
2022-10-26T03:45:42.617Z,8.03
2022-10-26T03:48:32.470Z,8.47
2022-10-26T03:51:22.226Z,9.30
2022-10-26T03:54:15.333Z,8.40
2022-10-26T03:57:03.850Z,10.17
2022-10-26T03:59:52.377Z,8.80
2022-10-26T04:02:46.872Z,9.67
2022-10-26T04:05:37.001Z,9.33
2022-10-26T04:08:27.132Z,9.40
2022-10-26T04:11:17.086Z,9.80
2022-10-26T04:14:05.555Z,9.67
2022-10-26T04:16:54.032Z,9.70
2022-10-26T04:19:45.910Z,10.30
2022-10-26T04:22:37.162Z,10.03
2022-10-26T04:25:32.859Z,9.47
2022-10-26T04:28:21.978Z,10.57
2022-10-26T04:31:10.537Z,10.80
2022-10-26T04:34:13.967Z,11.90
2022-10-26T04:37:09.324Z,10.90
2022-10-26T04:40:04.173Z,11.57
2022-10-26T04:42:55.617Z,11.57
2022-10-26T04:45:55.761Z,12.20
2022-10-26T04:48:48.533Z,11.30
2022-10-26T04:51:38.186Z,12.07
2022-10-26T04:54:29.451Z,11.50
2022-10-26T04:57:32.697Z,11.87
2022-10-26T05:00:24.189Z,11.87
2022-10-26T05:03:13.924Z,12.13
2022-10-26T05:06:13.107Z,12.70
2022-10-26T05:09:01.564Z,11.47
2022-10-26T05:11:50.005Z,11.70
2022-10-26T05:14:41.101Z,12.00
2022-10-26T05:17:31.010Z,12.83
2022-10-26T05:20:28.905Z,11.90
2022-10-26T05:23:19.338Z,12.70
2022-10-26T05:26:16.086Z,13.10
2022-10-26T05:29:09.089Z,12.83
2022-10-26T05:32:02.858Z,13.37
2022-10-26T05:34:51.311Z,14.17
2022-10-26T05:37:39.808Z,14.30
2022-10-26T05:40:28.308Z,14.23
2022-10-26T05:43:19.690Z,13.77
2022-10-26T05:46:09.191Z,13.93
2022-10-26T05:49:00.305Z,14.50
2022-10-26T05:51:51.145Z,14.47
2022-10-26T05:54:39.612Z,15.90
2022-10-26T05:57:29.384Z,15.83
2022-10-26T06:00:18.857Z,16.90
2022-10-26T06:03:16.375Z,15.57
2022-10-26T06:06:07.462Z,16.10
2022-10-26T06:08:58.403Z,14.70
2022-10-26T06:11:47.204Z,15.60
2022-10-26T06:14:36.300Z,15.53
2022-10-26T06:17:34.266Z,16.00
2022-10-26T06:20:33.597Z,16.47
2022-10-26T06:23:40.184Z,16.40
2022-10-26T06:26:32.771Z,16.23
2022-10-26T06:29:24.623Z,15.73
2022-10-26T06:32:13.628Z,15.03
2022-10-26T06:35:10.220Z,15.13
2022-10-26T06:38:01.503Z,15.30
2022-10-26T06:40:52.969Z,14.73
2022-10-26T06:43:41.883Z,13.27
2022-10-26T06:46:34.228Z,13.73
2022-10-26T06:49:26.264Z,14.50
2022-10-26T06:52:17.933Z,14.13
2022-10-26T06:55:06.895Z,13.07
2022-10-26T06:57:56.820Z,13.20
2022-10-26T07:00:45.893Z,13.10
2022-10-26T07:03:34.340Z,12.97
2022-10-26T07:06:22.851Z,13.87
2022-10-26T07:09:23.360Z,14.20
2022-10-26T07:12:11.895Z,14.73
2022-10-26T07:15:01.806Z,12.47
2022-10-26T07:17:52.465Z,14.27
2022-10-26T07:20:41.824Z,13.77
2022-10-26T07:26:25.525Z,14.10
2022-10-26T07:29:14.333Z,14.20
2022-10-26T07:32:04.453Z,13.77
2022-10-26T07:34:52.932Z,14.00
2022-10-26T07:37:41.422Z,13.70
2022-10-26T07:40:30.118Z,13.13
2022-10-26T07:43:18.761Z,12.30
2022-10-26T07:46:07.419Z,12.87
2022-10-26T07:48:57.425Z,12.80
2022-10-26T07:51:45.978Z,12.60
2022-10-26T07:54:34.674Z,14.20
2022-10-26T07:57:23.161Z,12.97
2022-10-26T08:00:12.306Z,13.37
2022-10-26T08:03:03.433Z,13.50
2022-10-26T08:05:55.891Z,13.03
2022-10-26T08:08:46.650Z,11.87
2022-10-26T08:11:37.033Z,13.37
2022-10-26T08:14:27.249Z,13.57
2022-10-26T08:17:15.772Z,13.33
2022-10-26T08:20:04.312Z,12.90
2022-10-26T08:22:54.197Z,12.77
2022-10-26T08:25:44.840Z,12.37
2022-10-26T08:28:33.478Z,13.07
2022-10-26T08:31:21.969Z,13.17
2022-10-26T08:34:10.612Z,13.30
2022-10-26T08:36:59.138Z,11.10
2022-10-26T08:39:51.907Z,12.23
2022-10-26T08:42:46.085Z,10.43
2022-10-26T08:45:37.171Z,11.37
2022-10-26T08:48:27.253Z,10.87
2022-10-26T08:51:18.413Z,11.20
2022-10-26T08:54:13.808Z,12.57
2022-10-26T08:57:07.781Z,12.63
2022-10-26T08:59:59.733Z,12.00
2022-10-26T09:02:51.175Z,12.43
2022-10-26T09:05:45.281Z,11.23
2022-10-26T09:08:39.189Z,11.13
2022-10-26T09:11:36.306Z,11.90
2022-10-26T09:14:36.425Z,10.20
2022-10-26T09:17:30.225Z,10.37
2022-10-26T09:20:26.762Z,10.57
2022-10-26T09:23:22.645Z,9.70
2022-10-26T09:26:15.004Z,9.73
2022-10-26T09:29:05.250Z,9.30
2022-10-26T09:31:56.382Z,8.90
2022-10-26T09:34:47.983Z,8.90
2022-10-26T09:37:38.860Z,8.60
2022-10-26T09:40:29.488Z,8.07
2022-10-26T09:43:20.279Z,8.23
2022-10-26T09:46:11.982Z,7.93
2022-10-26T09:49:06.134Z,7.13
2022-10-26T09:51:54.629Z,7.00
2022-10-26T09:54:43.270Z,6.80
2022-10-26T09:57:32.046Z,6.67
2022-10-26T10:00:26.913Z,7.20
2022-10-26T10:03:19.752Z,6.30
2022-10-26T10:06:20.283Z,6.40
2022-10-26T10:09:10.985Z,6.03
2022-10-26T10:12:02.507Z,6.70
2022-10-26T10:15:01.157Z,6.33
2022-10-26T10:17:53.054Z,6.80
2022-10-26T10:20:41.878Z,7.10
2022-10-26T10:23:33.419Z,6.00
2022-10-26T10:26:22.212Z,6.33
2022-10-26T10:29:18.049Z,5.40
2022-10-26T10:32:06.781Z,5.97
2022-10-26T10:34:57.545Z,6.03
2022-10-26T10:37:46.865Z,5.50
2022-10-26T10:40:36.754Z,6.30
2022-10-26T10:43:25.676Z,5.33
2022-10-26T10:46:19.367Z,5.90
2022-10-26T10:49:08.773Z,6.00
2022-10-26T10:51:57.857Z,6.17
2022-10-26T10:54:49.681Z,6.23
2022-10-26T10:57:45.546Z,5.10
2022-10-26T11:00:37.826Z,4.77
2022-10-26T11:03:39.245Z,5.03
2022-10-26T11:06:29.548Z,4.97
2022-10-26T11:09:19.951Z,4.80
2022-10-26T11:12:11.175Z,5.63
2022-10-26T11:15:02.216Z,5.90
2022-10-26T11:17:54.656Z,5.40
2022-10-26T11:20:47.174Z,5.20
2022-10-26T11:23:39.765Z,4.97
2022-10-26T11:26:31.143Z,5.37
2022-10-26T11:29:24.095Z,5.27
2022-10-26T11:32:17.114Z,5.90
2022-10-26T11:35:11.151Z,5.30
2022-10-26T11:38:04.691Z,5.03
2022-10-26T11:40:56.405Z,3.70
2022-10-26T11:43:46.822Z,3.90
2022-10-26T11:46:38.883Z,4.50
2022-10-26T11:49:32.788Z,3.80
2022-10-26T11:52:24.074Z,4.33
2022-10-26T11:55:13.078Z,4.50
2022-10-26T11:58:02.826Z,3.90
2022-10-26T12:00:53.454Z,4.50
2022-10-26T12:03:45.582Z,3.20
2022-10-26T12:06:36.087Z,3.15
2022-10-26T12:09:27.647Z,3.33
2022-10-26T12:12:21.499Z,3.85
2022-10-26T12:15:18.488Z,3.72
2022-10-26T12:18:16.031Z,3.00
2022-10-26T12:21:06.937Z,4.40
2022-10-26T12:23:57.491Z,2.95
2022-10-26T12:26:55.885Z,3.08
2022-10-26T12:29:49.106Z,3.22
2022-10-26T12:32:52.790Z,3.15
2022-10-26T12:35:45.025Z,2.90
2022-10-26T12:38:51.413Z,3.00
2022-10-26T12:41:41.268Z,3.30
2022-10-26T12:44:33.813Z,2.65
2022-10-26T12:47:37.194Z,3.03
2022-10-26T12:50:26.255Z,2.60
2022-10-26T12:53:17.307Z,2.40
2022-10-26T12:56:06.776Z,2.58
2022-10-26T12:59:07.577Z,2.45
2022-10-26T13:02:06.358Z,2.53
2022-10-26T13:05:12.496Z,2.65
2022-10-26T13:08:04.557Z,2.97
2022-10-26T13:11:03.515Z,2.33
2022-10-26T13:13:55.913Z,2.30
2022-10-26T13:16:47.618Z,2.30
2022-10-26T13:19:41.172Z,2.33
2022-10-26T13:22:30.349Z,2.63
2022-10-26T13:25:23.054Z,2.50
2022-10-26T13:28:26.399Z,2.90
2022-10-26T13:31:19.503Z,2.37
2022-10-26T13:34:17.533Z,2.63
2022-10-26T13:37:09.673Z,2.90
2022-10-26T13:39:59.615Z,2.60
2022-10-26T13:42:49.680Z,2.33
2022-10-26T13:45:43.318Z,2.50
2022-10-26T13:48:35.385Z,2.60
2022-10-26T13:51:26.947Z,2.80
2022-10-26T13:54:23.443Z,3.03
2022-10-26T13:57:18.278Z,2.60
2022-10-26T14:00:10.369Z,2.93
2022-10-26T14:02:58.901Z,2.50
2022-10-26T14:05:49.369Z,2.50
2022-10-26T14:08:42.281Z,3.00
2022-10-26T14:11:36.076Z,2.50
2022-10-26T14:14:28.653Z,2.70
2022-10-26T14:17:20.793Z,3.20
2022-10-26T14:20:18.560Z,3.17
2022-10-26T14:23:07.048Z,2.87
2022-10-26T14:26:00.148Z,2.70
2022-10-26T14:28:50.433Z,2.50
2022-10-26T14:31:38.930Z,2.80
2022-10-26T14:34:27.482Z,3.57
2022-10-26T14:37:19.484Z,2.80
2022-10-26T14:40:08.850Z,3.30
2022-10-26T14:42:59.814Z,2.97
2022-10-26T14:45:51.262Z,2.80
2022-10-26T14:48:42.509Z,2.60
2022-10-26T14:51:31.429Z,2.70
2022-10-26T14:54:22.080Z,2.63
2022-10-26T14:57:30.713Z,2.50
2022-10-26T15:00:21.198Z,2.70
2022-10-26T15:03:16.013Z,2.27
2022-10-26T15:06:19.370Z,2.63
2022-10-26T15:09:07.915Z,2.50
2022-10-26T15:11:56.461Z,2.80
2022-10-26T15:14:45.119Z,2.60
2022-10-26T15:17:38.242Z,2.70
2022-10-26T15:20:28.305Z,2.80
2022-10-26T15:23:18.092Z,2.67
2022-10-26T15:26:06.774Z,3.00
2022-10-26T15:28:55.857Z,3.03
2022-10-26T15:31:44.343Z,2.70
2022-10-26T15:34:34.248Z,2.57
2022-10-26T15:37:22.805Z,2.90
2022-10-26T15:40:11.747Z,3.07
2022-10-26T15:43:01.603Z,2.83
2022-10-26T15:45:52.082Z,3.37
2022-10-26T15:48:40.703Z,2.80
2022-10-26T15:51:30.924Z,3.20
2022-10-26T15:54:19.419Z,2.80
2022-10-26T15:57:08.314Z,2.63
2022-10-26T15:59:56.794Z,2.83
2022-10-26T16:02:45.951Z,2.60
2022-10-26T16:05:34.501Z,2.97
2022-10-26T16:08:24.502Z,2.83
2022-10-26T16:11:12.981Z,2.70
2022-10-26T16:14:03.747Z,3.10
2022-10-26T16:16:53.625Z,2.90
2022-10-26T16:19:42.131Z,3.13
2022-10-26T16:22:32.682Z,2.70
2022-10-26T16:25:26.097Z,2.70
2022-10-26T16:28:17.696Z,2.80
2022-10-26T16:31:07.060Z,2.83
2022-10-26T16:33:57.957Z,3.00
2022-10-26T16:36:48.697Z,3.30
2022-10-26T16:39:37.205Z,2.90
2022-10-26T16:42:28.339Z,3.40
2022-10-26T16:45:17.029Z,3.27
2022-10-26T16:48:09.412Z,3.30
2022-10-26T16:50:57.926Z,2.80
2022-10-26T16:53:48.252Z,3.50
2022-10-26T16:56:37.240Z,3.10
2022-10-26T16:59:27.073Z,3.20
2022-10-26T17:02:15.975Z,3.10
2022-10-26T17:05:07.191Z,3.30
2022-10-26T17:07:56.264Z,3.23
2022-10-26T17:10:46.036Z,3.67
2022-10-26T17:13:34.586Z,3.20
2022-10-26T17:16:25.425Z,3.90
2022-10-26T17:19:14.001Z,4.00
2022-10-26T17:22:04.985Z,3.30
2022-10-26T17:24:56.460Z,4.00
2022-10-26T17:27:46.793Z,3.33
2022-10-26T17:30:36.129Z,3.80
2022-10-26T17:33:25.998Z,3.73
2022-10-26T17:36:16.717Z,3.77
2022-10-26T17:39:05.320Z,4.20
2022-10-26T17:41:53.902Z,3.83
2022-10-26T17:44:43.944Z,4.20
2022-10-26T17:47:32.459Z,4.57
2022-10-26T17:50:22.272Z,4.17
2022-10-26T17:53:10.817Z,4.40
2022-10-26T17:56:02.794Z,4.87
2022-10-26T17:58:54.632Z,4.40
2022-10-26T18:01:43.202Z,4.27
2022-10-26T18:04:31.774Z,4.10
2022-10-26T18:07:21.597Z,4.30
2022-10-26T18:10:26.242Z,4.47
2022-10-26T18:13:19.198Z,4.80
2022-10-26T18:16:09.688Z,5.13
2022-10-26T18:19:00.688Z,5.20
2022-10-26T18:21:50.033Z,4.10
2022-10-26T18:24:39.932Z,4.23
2022-10-26T18:27:28.563Z,4.60
2022-10-26T18:30:17.126Z,4.70
2022-10-26T18:33:05.749Z,4.37
2022-10-26T18:35:54.248Z,4.07
2022-10-26T18:38:43.117Z,5.07
2022-10-26T18:41:33.106Z,5.33
2022-10-26T18:44:22.664Z,3.90
2022-10-26T18:47:11.180Z,4.80
2022-10-26T18:50:00.089Z,4.10
2022-10-26T18:52:48.566Z,4.70
2022-10-26T18:55:37.067Z,4.53
2022-10-26T18:58:26.896Z,4.37
2022-10-26T19:01:16.281Z,4.90
2022-10-26T19:04:05.806Z,5.80
2022-10-26T19:06:54.265Z,4.50
2022-10-26T19:09:42.770Z,5.17
2022-10-26T19:12:31.403Z,4.50
2022-10-26T19:15:21.272Z,5.90
2022-10-26T19:18:09.743Z,4.93
2022-10-26T19:21:01.753Z,5.07
2022-10-26T19:23:50.997Z,4.50
2022-10-26T19:26:43.139Z,4.60
2022-10-26T19:29:32.409Z,4.80
2022-10-26T19:32:24.660Z,4.30
2022-10-26T19:35:21.419Z,4.40
2022-10-26T19:38:10.979Z,4.67
2022-10-26T19:41:06.458Z,5.67
2022-10-26T19:44:02.497Z,5.43
2022-10-26T19:46:54.343Z,4.93
2022-10-26T19:49:50.873Z,5.07
2022-10-26T19:52:47.406Z,4.50
2022-10-26T19:55:38.117Z,4.50
2022-10-26T19:58:27.090Z,4.30
2022-10-26T20:01:16.583Z,4.53
2022-10-26T20:04:10.655Z,4.37
2022-10-26T20:07:05.445Z,4.60
2022-10-26T20:09:55.975Z,4.53
2022-10-26T20:12:54.544Z,4.23
2022-10-26T20:15:43.417Z,4.10
2022-10-26T20:18:33.874Z,4.87
2022-10-26T20:21:27.533Z,4.20
2022-10-26T20:24:18.730Z,4.40
2022-10-26T20:27:10.226Z,4.40
2022-10-26T20:30:01.979Z,4.27
2022-10-26T20:32:57.559Z,4.60
2022-10-26T20:35:47.107Z,4.47
2022-10-26T20:38:35.825Z,4.30
2022-10-26T20:41:35.186Z,4.53
2022-10-26T20:44:26.283Z,5.20
2022-10-26T20:47:18.892Z,4.13
2022-10-26T20:50:10.759Z,4.77
2022-10-26T20:53:02.956Z,5.27
2022-10-26T20:55:53.541Z,4.67
2022-10-26T20:58:45.532Z,4.83
2022-10-26T21:01:37.613Z,5.60
2022-10-26T21:04:29.571Z,5.17
2022-10-26T21:07:23.203Z,5.10
2022-10-26T21:10:13.879Z,4.90
2022-10-26T21:13:05.965Z,5.73
2022-10-26T21:15:57.607Z,5.50
2022-10-26T21:18:47.553Z,5.30
2022-10-26T21:21:39.629Z,6.40
2022-10-26T21:24:37.153Z,5.90
2022-10-26T21:27:33.150Z,5.93
2022-10-26T21:30:21.652Z,6.00
2022-10-26T21:33:12.707Z,5.93
2022-10-26T21:36:03.031Z,6.00
2022-10-26T21:38:54.368Z,6.60
2022-10-26T21:41:44.836Z,6.00
2022-10-26T21:44:41.449Z,6.33
2022-10-26T21:47:37.612Z,6.00
2022-10-26T21:50:27.422Z,5.97
2022-10-26T21:53:17.006Z,6.17
2022-10-26T21:56:13.786Z,6.67
2022-10-26T21:59:02.291Z,6.20
2022-10-26T22:01:56.327Z,6.80
2022-10-26T22:04:45.949Z,7.37
2022-10-26T22:07:39.398Z,6.60
2022-10-26T22:10:31.157Z,7.00
2022-10-26T22:13:25.107Z,7.67
2022-10-26T22:16:17.328Z,7.40
2022-10-26T22:19:07.143Z,7.67
2022-10-26T22:21:59.682Z,9.07
2022-10-26T22:24:56.874Z,9.80
2022-10-26T22:27:48.711Z,9.30
2022-10-26T22:30:40.180Z,9.33
2022-10-26T22:33:28.750Z,8.77
2022-10-26T22:36:19.933Z,9.40
2022-10-26T22:39:08.405Z,9.13
2022-10-26T22:41:58.205Z,10.73
2022-10-26T22:44:48.375Z,10.00
2022-10-26T22:47:36.946Z,8.53
2022-10-26T22:50:25.471Z,9.67
2022-10-26T22:53:16.664Z,8.63
2022-10-26T22:56:05.676Z,9.73
2022-10-26T22:58:55.499Z,10.07
2022-10-26T23:01:51.068Z,9.17
2022-10-26T23:07:43.841Z,9.90
2022-10-26T23:10:33.061Z,11.10
2022-10-26T23:13:23.234Z,10.43
2022-10-26T23:16:14.996Z,9.70
2022-10-26T23:19:05.259Z,10.60
2022-10-26T23:21:56.590Z,10.67
2022-10-26T23:24:47.312Z,10.70
2022-10-26T23:27:46.045Z,10.30
2022-10-26T23:30:40.286Z,10.30
2022-10-26T23:33:34.129Z,9.50
2022-10-26T23:36:30.507Z,9.47
2022-10-26T23:39:22.121Z,10.60
2022-10-26T23:42:17.210Z,11.37
2022-10-26T23:45:08.848Z,10.13
2022-10-26T23:48:13.931Z,10.60
2022-10-26T23:51:06.123Z,9.67
2022-10-26T23:53:58.752Z,9.93
2022-10-26T23:56:53.080Z,10.37
2022-10-26T23:59:43.054Z,9.53
